Meyers Chuck, Alaska
Current Conditions -  °F | °C
As of 7:53 AM on Friday 24 Oct 2014 (Local Time) from PAKW Reporting Station
Overcast Overcast  
Wind Chill: 39°   Ceiling: 10000
Heat Index: 44°   Visibility: 10mi
Dew Point: 42°   Wind: 9mph
Humidity: 93%   Direction: 40°NE
Pressure: 29.78"   Gusts: NA
Location:  55.74°N, 132.26°W
Report Text: PAKW 241553Z AUTO 04008KT 10SM SCT037 OVC100 07/06 A2978 RMK AO2 SLP085 T00670056 TSNO
Loading
Personal Weather Stations






























Interactive Weather Map
Tropical Storm Tracking
New forecast layout! Learn more

10-Day Weather Forecast

Advertisements
Track Severe Weather on mobile